Terminal Aerodrome Forecast
Issued by NWS Wilmington, OH

Current Version | Previous Version | Graphics & Text | Print | Product List | Glossary On
Versions: 1 2 3 4 5 6 7 8 9 10 11 12 13 14 15 16 17 18
295
FTUS41 KILN 060534
TAFILN
TAF
KILN 060534Z 0606/0706 09009KT P6SM OVC150
     FM061100 10008KT P6SM VCSH OVC060
     FM061300 10008KT 5SM -RA OVC015
     FM061500 10008KT 3SM -RA BR OVC006
     FM062200 30013G21KT P6SM -DZ OVC007
     FM070300 29010KT P6SM OVC007=

USA.gov is the U.S. government's official web portal to all federal, state and local government web resources and services.